sensor_id;sensor_type;location;lat;lon;timestamp;P1;durP1;ratioP1;P2;durP2;ratioP2
48241;SDS011;34041;51.812;4.622;2022-10-22T00:02:05;3.92;;;2.25;;
48241;SDS011;34041;51.812;4.622;2022-10-22T00:05:07;4.20;;;1.73;;
48241;SDS011;34041;51.812;4.622;2022-10-22T00:08:07;4.53;;;2.60;;
48241;SDS011;34041;51.812;4.622;2022-10-22T00:11:08;5.90;;;1.97;;
48241;SDS011;34041;51.812;4.622;2022-10-22T00:14:09;4.00;;;2.42;;
48241;SDS011;34041;51.812;4.622;2022-10-22T00:17:09;3.88;;;2.10;;
48241;SDS011;34041;51.812;4.622;2022-10-22T00:20:09;5.40;;;2.30;;
48241;SDS011;34041;51.812;4.622;2022-10-22T00:23:10;6.13;;;2.70;;
48241;SDS011;34041;51.812;4.622;2022-10-22T00:26:10;4.70;;;2.10;;
48241;SDS011;34041;51.812;4.622;2022-10-22T00:29:10;3.58;;;1.90;;
48241;SDS011;34041;51.812;4.622;2022-10-22T00:32:10;3.70;;;2.33;;
48241;SDS011;34041;51.812;4.622;2022-10-22T00:35:11;3.13;;;1.93;;
48241;SDS011;34041;51.812;4.622;2022-10-22T00:38:11;3.63;;;1.85;;
48241;SDS011;34041;51.812;4.622;2022-10-22T00:41:11;3.27;;;1.83;;
48241;SDS011;34041;51.812;4.622;2022-10-22T00:47:31;3.60;;;2.20;;
48241;SDS011;34041;51.812;4.622;2022-10-22T00:50:34;4.85;;;1.67;;
48241;SDS011;34041;51.812;4.622;2022-10-22T00:53:38;9.35;;;3.17;;
48241;SDS011;34041;51.812;4.622;2022-10-22T00:56:39;3.58;;;1.77;;
48241;SDS011;34041;51.812;4.622;2022-10-22T00:59:39;2.92;;;1.95;;
48241;SDS011;34041;51.812;4.622;2022-10-22T01:02:40;2.92;;;1.70;;
48241;SDS011;34041;51.812;4.622;2022-10-22T01:05:42;5.27;;;1.90;;
48241;SDS011;34041;51.812;4.622;2022-10-22T01:11:51;4.07;;;2.43;;
48241;SDS011;34041;51.812;4.622;2022-10-22T01:18:31;8.48;;;2.10;;
48241;SDS011;34041;51.812;4.622;2022-10-22T01:21:35;3.63;;;1.80;;
48241;SDS011;34041;51.812;4.622;2022-10-22T01:30:48;3.90;;;1.67;;
48241;SDS011;34041;51.812;4.622;2022-10-22T01:33:50;5.63;;;2.10;;
48241;SDS011;34041;51.812;4.622;2022-10-22T01:36:52;4.22;;;1.92;;
48241;SDS011;34041;51.812;4.622;2022-10-22T01:39:53;5.72;;;2.17;;
48241;SDS011;34041;51.812;4.622;2022-10-22T01:42:59;5.03;;;2.30;;
48241;SDS011;34041;51.812;4.622;2022-10-22T01:46:00;3.60;;;2.20;;
48241;SDS011;34041;51.812;4.622;2022-10-22T01:49:19;5.10;;;2.72;;
48241;SDS011;34041;51.812;4.622;2022-10-22T01:55:41;9.43;;;2.92;;
48241;SDS011;34041;51.812;4.622;2022-10-22T02:05:29;5.85;;;2.55;;
48241;SDS011;34041;51.812;4.622;2022-10-22T02:08:31;4.40;;;2.45;;
48241;SDS011;34041;51.812;4.622;2022-10-22T02:11:32;3.85;;;1.88;;
48241;SDS011;34041;51.812;4.622;2022-10-22T02:14:33;6.30;;;2.30;;
48241;SDS011;34041;51.812;4.622;2022-10-22T02:17:33;4.05;;;2.13;;
48241;SDS011;34041;51.812;4.622;2022-10-22T02:20:35;7.47;;;2.67;;
48241;SDS011;34041;51.812;4.622;2022-10-22T02:23:36;3.50;;;2.17;;
48241;SDS011;34041;51.812;4.622;2022-10-22T02:26:45;4.93;;;1.73;;
48241;SDS011;34041;51.812;4.622;2022-10-22T02:29:52;3.88;;;1.90;;
48241;SDS011;34041;51.812;4.622;2022-10-22T02:36:14;5.82;;;1.77;;
48241;SDS011;34041;51.812;4.622;2022-10-22T02:39:15;5.15;;;1.90;;
48241;SDS011;34041;51.812;4.622;2022-10-22T02:42:16;5.05;;;2.35;;
48241;SDS011;34041;51.812;4.622;2022-10-22T02:45:17;5.75;;;2.42;;
48241;SDS011;34041;51.812;4.622;2022-10-22T02:48:18;4.47;;;2.00;;
48241;SDS011;34041;51.812;4.622;2022-10-22T02:51:18;5.33;;;1.93;;
48241;SDS011;34041;51.812;4.622;2022-10-22T02:54:18;4.17;;;2.33;;
48241;SDS011;34041;51.812;4.622;2022-10-22T02:57:18;5.43;;;1.97;;
48241;SDS011;34041;51.812;4.622;2022-10-22T03:00:19;6.53;;;2.80;;
48241;SDS011;34041;51.812;4.622;2022-10-22T03:03:19;3.05;;;1.73;;
48241;SDS011;34041;51.812;4.622;2022-10-22T03:06:19;7.10;;;2.10;;
48241;SDS011;34041;51.812;4.622;2022-10-22T03:09:19;6.17;;;2.23;;
48241;SDS011;34041;51.812;4.622;2022-10-22T03:12:19;9.70;;;2.40;;
48241;SDS011;34041;51.812;4.622;2022-10-22T03:15:20;7.70;;;2.30;;
48241;SDS011;34041;51.812;4.622;2022-10-22T03:18:20;5.27;;;2.43;;
48241;SDS011;34041;51.812;4.622;2022-10-22T03:21:40;5.75;;;2.33;;
48241;SDS011;34041;51.812;4.622;2022-10-22T03:24:41;5.55;;;2.10;;
48241;SDS011;34041;51.812;4.622;2022-10-22T03:27:43;7.10;;;2.90;;
48241;SDS011;34041;51.812;4.622;2022-10-22T03:30:43;5.60;;;2.88;;
48241;SDS011;34041;51.812;4.622;2022-10-22T03:33:43;4.33;;;1.63;;
48241;SDS011;34041;51.812;4.622;2022-10-22T03:36:44;4.72;;;2.10;;
48241;SDS011;34041;51.812;4.622;2022-10-22T03:39:44;6.22;;;1.90;;
48241;SDS011;34041;51.812;4.622;2022-10-22T03:42:45;6.40;;;2.20;;
48241;SDS011;34041;51.812;4.622;2022-10-22T03:45:45;6.70;;;2.22;;
48241;SDS011;34041;51.812;4.622;2022-10-22T03:48:45;4.43;;;2.08;;
48241;SDS011;34041;51.812;4.622;2022-10-22T03:51:46;7.27;;;1.70;;
48241;SDS011;34041;51.812;4.622;2022-10-22T03:54:46;8.63;;;1.87;;
48241;SDS011;34041;51.812;4.622;2022-10-22T03:57:46;5.10;;;2.37;;
48241;SDS011;34041;51.812;4.622;2022-10-22T04:00:46;3.97;;;2.07;;
48241;SDS011;34041;51.812;4.622;2022-10-22T04:03:46;7.93;;;2.33;;
48241;SDS011;34041;51.812;4.622;2022-10-22T04:06:47;6.80;;;2.30;;
48241;SDS011;34041;51.812;4.622;2022-10-22T04:09:47;7.90;;;2.00;;
48241;SDS011;34041;51.812;4.622;2022-10-22T04:12:47;4.77;;;2.20;;
48241;SDS011;34041;51.812;4.622;2022-10-22T04:15:47;7.30;;;1.75;;
48241;SDS011;34041;51.812;4.622;2022-10-22T04:18:48;4.80;;;1.75;;
48241;SDS011;34041;51.812;4.622;2022-10-22T04:21:48;5.88;;;1.85;;
48241;SDS011;34041;51.812;4.622;2022-10-22T04:24:49;5.27;;;2.10;;
48241;SDS011;34041;51.812;4.622;2022-10-22T04:27:49;4.70;;;1.90;;
48241;SDS011;34041;51.812;4.622;2022-10-22T04:30:49;2.53;;;1.53;;
48241;SDS011;34041;51.812;4.622;2022-10-22T04:33:58;7.40;;;1.90;;
48241;SDS011;34041;51.812;4.622;2022-10-22T04:36:58;4.30;;;1.90;;
48241;SDS011;34041;51.812;4.622;2022-10-22T04:39:58;5.53;;;2.10;;
48241;SDS011;34041;51.812;4.622;2022-10-22T04:42:59;8.80;;;2.60;;
48241;SDS011;34041;51.812;4.622;2022-10-22T04:45:59;6.03;;;2.27;;
48241;SDS011;34041;51.812;4.622;2022-10-22T04:48:59;6.53;;;1.63;;
48241;SDS011;34041;51.812;4.622;2022-10-22T04:52:02;4.97;;;1.92;;
48241;SDS011;34041;51.812;4.622;2022-10-22T04:55:02;3.75;;;2.00;;
48241;SDS011;34041;51.812;4.622;2022-10-22T04:58:02;3.70;;;2.17;;
48241;SDS011;34041;51.812;4.622;2022-10-22T05:01:16;5.75;;;2.00;;
48241;SDS011;34041;51.812;4.622;2022-10-22T05:04:17;4.57;;;1.80;;
48241;SDS011;34041;51.812;4.622;2022-10-22T05:07:18;5.70;;;1.88;;
48241;SDS011;34041;51.812;4.622;2022-10-22T05:10:18;3.67;;;1.73;;
48241;SDS011;34041;51.812;4.622;2022-10-22T05:13:19;4.07;;;2.07;;
48241;SDS011;34041;51.812;4.622;2022-10-22T05:16:19;6.00;;;1.93;;
48241;SDS011;34041;51.812;4.622;2022-10-22T05:19:21;5.35;;;2.42;;
48241;SDS011;34041;51.812;4.622;2022-10-22T05:22:22;4.60;;;1.63;;
48241;SDS011;34041;51.812;4.622;2022-10-22T05:25:23;4.63;;;2.00;;
48241;SDS011;34041;51.812;4.622;2022-10-22T05:28:23;3.13;;;1.70;;
48241;SDS011;34041;51.812;4.622;2022-10-22T05:31:23;4.83;;;2.10;;
48241;SDS011;34041;51.812;4.622;2022-10-22T05:34:24;3.63;;;1.40;;
48241;SDS011;34041;51.812;4.622;2022-10-22T05:37:24;5.30;;;2.80;;
48241;SDS011;34041;51.812;4.622;2022-10-22T05:40:24;3.17;;;1.67;;
48241;SDS011;34041;51.812;4.622;2022-10-22T05:43:24;6.67;;;2.23;;
48241;SDS011;34041;51.812;4.622;2022-10-22T05:46:26;5.87;;;2.63;;
48241;SDS011;34041;51.812;4.622;2022-10-22T05:49:26;5.25;;;1.95;;
48241;SDS011;34041;51.812;4.622;2022-10-22T05:52:26;6.13;;;1.77;;
48241;SDS011;34041;51.812;4.622;2022-10-22T05:55:27;5.47;;;1.93;;
48241;SDS011;34041;51.812;4.622;2022-10-22T05:58:27;4.28;;;1.83;;
48241;SDS011;34041;51.812;4.622;2022-10-22T06:01:29;5.38;;;2.22;;
48241;SDS011;34041;51.812;4.622;2022-10-22T06:04:29;3.05;;;1.95;;
48241;SDS011;34041;51.812;4.622;2022-10-22T06:07:29;4.68;;;2.05;;
48241;SDS011;34041;51.812;4.622;2022-10-22T06:10:30;4.20;;;1.97;;
48241;SDS011;34041;51.812;4.622;2022-10-22T06:13:30;5.13;;;1.90;;
48241;SDS011;34041;51.812;4.622;2022-10-22T06:16:31;6.60;;;2.03;;
48241;SDS011;34041;51.812;4.622;2022-10-22T06:19:32;4.63;;;2.08;;
48241;SDS011;34041;51.812;4.622;2022-10-22T06:22:32;6.80;;;2.43;;
48241;SDS011;34041;51.812;4.622;2022-10-22T06:25:32;5.65;;;2.28;;
48241;SDS011;34041;51.812;4.622;2022-10-22T06:28:32;5.43;;;2.10;;
48241;SDS011;34041;51.812;4.622;2022-10-22T06:31:33;4.07;;;1.88;;
48241;SDS011;34041;51.812;4.622;2022-10-22T06:34:36;7.57;;;2.38;;
48241;SDS011;34041;51.812;4.622;2022-10-22T06:37:36;7.00;;;2.20;;
48241;SDS011;34041;51.812;4.622;2022-10-22T06:40:36;6.27;;;2.40;;
48241;SDS011;34041;51.812;4.622;2022-10-22T06:43:37;3.17;;;1.77;;
48241;SDS011;34041;51.812;4.622;2022-10-22T06:46:38;5.88;;;2.70;;
48241;SDS011;34041;51.812;4.622;2022-10-22T06:49:38;3.67;;;1.57;;
48241;SDS011;34041;51.812;4.622;2022-10-22T06:52:38;3.53;;;1.83;;
48241;SDS011;34041;51.812;4.622;2022-10-22T06:55:38;4.57;;;1.90;;
48241;SDS011;34041;51.812;4.622;2022-10-22T06:58:39;3.03;;;1.73;;
48241;SDS011;34041;51.812;4.622;2022-10-22T07:01:39;6.05;;;2.55;;
48241;SDS011;34041;51.812;4.622;2022-10-22T07:04:39;3.50;;;1.77;;
48241;SDS011;34041;51.812;4.622;2022-10-22T07:07:39;5.87;;;2.07;;
48241;SDS011;34041;51.812;4.622;2022-10-22T07:10:40;6.20;;;2.73;;
48241;SDS011;34041;51.812;4.622;2022-10-22T07:13:40;7.13;;;2.37;;
48241;SDS011;34041;51.812;4.622;2022-10-22T07:16:41;8.02;;;2.17;;
48241;SDS011;34041;51.812;4.622;2022-10-22T07:19:42;6.30;;;2.65;;
48241;SDS011;34041;51.812;4.622;2022-10-22T07:22:42;10.63;;;3.40;;
48241;SDS011;34041;51.812;4.622;2022-10-22T07:25:42;6.17;;;2.83;;
48241;SDS011;34041;51.812;4.622;2022-10-22T07:28:42;8.23;;;3.17;;
48241;SDS011;34041;51.812;4.622;2022-10-22T07:31:43;8.60;;;3.53;;
48241;SDS011;34041;51.812;4.622;2022-10-22T07:34:43;7.33;;;3.07;;
48241;SDS011;34041;51.812;4.622;2022-10-22T07:37:43;11.33;;;2.73;;
48241;SDS011;34041;51.812;4.622;2022-10-22T07:40:43;7.33;;;3.23;;
48241;SDS011;34041;51.812;4.622;2022-10-22T07:43:43;4.83;;;2.40;;
48241;SDS011;34041;51.812;4.622;2022-10-22T07:46:44;6.10;;;2.03;;
48241;SDS011;34041;51.812;4.622;2022-10-22T07:49:44;4.87;;;2.10;;
48241;SDS011;34041;51.812;4.622;2022-10-22T07:52:44;5.80;;;2.13;;
48241;SDS011;34041;51.812;4.622;2022-10-22T07:55:49;4.85;;;1.95;;
48241;SDS011;34041;51.812;4.622;2022-10-22T07:58:49;5.93;;;2.38;;
48241;SDS011;34041;51.812;4.622;2022-10-22T08:01:50;8.57;;;2.77;;
48241;SDS011;34041;51.812;4.622;2022-10-22T08:04:50;4.40;;;1.73;;
48241;SDS011;34041;51.812;4.622;2022-10-22T08:07:50;5.88;;;2.10;;
48241;SDS011;34041;51.812;4.622;2022-10-22T08:10:51;4.93;;;1.50;;
48241;SDS011;34041;51.812;4.622;2022-10-22T08:13:54;6.40;;;2.08;;
48241;SDS011;34041;51.812;4.622;2022-10-22T08:16:54;6.13;;;2.10;;
48241;SDS011;34041;51.812;4.622;2022-10-22T08:19:55;5.03;;;2.27;;
48241;SDS011;34041;51.812;4.622;2022-10-22T08:22:55;6.33;;;2.43;;
48241;SDS011;34041;51.812;4.622;2022-10-22T08:25:55;6.10;;;2.50;;
48241;SDS011;34041;51.812;4.622;2022-10-22T08:28:56;3.42;;;1.60;;
48241;SDS011;34041;51.812;4.622;2022-10-22T08:31:56;6.03;;;2.10;;
48241;SDS011;34041;51.812;4.622;2022-10-22T08:34:56;6.20;;;2.07;;
48241;SDS011;34041;51.812;4.622;2022-10-22T08:37:56;7.23;;;2.27;;
48241;SDS011;34041;51.812;4.622;2022-10-22T08:41:02;5.53;;;2.33;;
48241;SDS011;34041;51.812;4.622;2022-10-22T08:50:44;5.38;;;1.70;;
48241;SDS011;34041;51.812;4.622;2022-10-22T08:57:21;7.22;;;2.00;;
48241;SDS011;34041;51.812;4.622;2022-10-22T09:00:27;6.75;;;2.40;;
48241;SDS011;34041;51.812;4.622;2022-10-22T09:03:39;7.03;;;2.42;;
48241;SDS011;34041;51.812;4.622;2022-10-22T09:06:41;5.95;;;2.00;;
48241;SDS011;34041;51.812;4.622;2022-10-22T09:09:44;6.63;;;2.25;;
48241;SDS011;34041;51.812;4.622;2022-10-22T09:12:46;8.05;;;1.88;;
48241;SDS011;34041;51.812;4.622;2022-10-22T09:15:52;5.05;;;1.80;;
48241;SDS011;34041;51.812;4.622;2022-10-22T09:18:59;4.55;;;1.73;;
48241;SDS011;34041;51.812;4.622;2022-10-22T09:28:24;6.88;;;1.77;;
48241;SDS011;34041;51.812;4.622;2022-10-22T09:31:25;6.80;;;1.95;;
48241;SDS011;34041;51.812;4.622;2022-10-22T09:34:27;11.15;;;2.78;;
48241;SDS011;34041;51.812;4.622;2022-10-22T09:37:28;7.50;;;1.90;;
48241;SDS011;34041;51.812;4.622;2022-10-22T09:40:28;10.85;;;3.65;;
48241;SDS011;34041;51.812;4.622;2022-10-22T09:43:28;7.63;;;2.60;;
48241;SDS011;34041;51.812;4.622;2022-10-22T09:46:28;3.80;;;1.40;;
48241;SDS011;34041;51.812;4.622;2022-10-22T09:49:29;11.23;;;2.83;;
48241;SDS011;34041;51.812;4.622;2022-10-22T09:52:32;8.00;;;2.08;;
48241;SDS011;34041;51.812;4.622;2022-10-22T09:55:33;12.57;;;3.17;;
48241;SDS011;34041;51.812;4.622;2022-10-22T09:58:40;10.18;;;2.63;;
48241;SDS011;34041;51.812;4.622;2022-10-22T10:01:41;11.93;;;2.42;;
48241;SDS011;34041;51.812;4.622;2022-10-22T10:04:46;10.60;;;2.20;;
48241;SDS011;34041;51.812;4.622;2022-10-22T10:07:46;10.02;;;2.17;;
48241;SDS011;34041;51.812;4.622;2022-10-22T10:10:48;10.68;;;2.85;;
48241;SDS011;34041;51.812;4.622;2022-10-22T10:26:35;9.90;;;1.98;;
48241;SDS011;34041;51.812;4.622;2022-10-22T10:36:11;8.00;;;2.22;;
48241;SDS011;34041;51.812;4.622;2022-10-22T10:39:23;11.10;;;2.88;;
48241;SDS011;34041;51.812;4.622;2022-10-22T10:51:54;11.00;;;3.00;;
48241;SDS011;34041;51.812;4.622;2022-10-22T10:58:13;9.73;;;2.67;;
48241;SDS011;34041;51.812;4.622;2022-10-22T11:01:23;10.85;;;2.55;;
48241;SDS011;34041;51.812;4.622;2022-10-22T11:07:36;12.25;;;3.88;;
48241;SDS011;34041;51.812;4.622;2022-10-22T11:10:38;10.27;;;2.40;;
48241;SDS011;34041;51.812;4.622;2022-10-22T11:17:16;8.20;;;2.60;;
48241;SDS011;34041;51.812;4.622;2022-10-22T11:20:19;14.32;;;4.13;;
48241;SDS011;34041;51.812;4.622;2022-10-22T11:23:27;11.97;;;3.13;;
48241;SDS011;34041;51.812;4.622;2022-10-22T11:26:31;8.98;;;2.95;;
48241;SDS011;34041;51.812;4.622;2022-10-22T11:32:33;12.30;;;2.58;;
48241;SDS011;34041;51.812;4.622;2022-10-22T11:35:33;8.73;;;2.70;;
48241;SDS011;34041;51.812;4.622;2022-10-22T11:38:34;12.02;;;3.72;;
48241;SDS011;34041;51.812;4.622;2022-10-22T11:41:35;18.00;;;3.65;;
48241;SDS011;34041;51.812;4.622;2022-10-22T11:44:45;14.33;;;2.90;;
48241;SDS011;34041;51.812;4.622;2022-10-22T11:51:00;12.95;;;3.03;;
48241;SDS011;34041;51.812;4.622;2022-10-22T11:54:45;11.38;;;3.80;;
48241;SDS011;34041;51.812;4.622;2022-10-22T11:57:24;15.55;;;3.42;;
48241;SDS011;34041;51.812;4.622;2022-10-22T12:00:41;6.77;;;2.73;;
48241;SDS011;34041;51.812;4.622;2022-10-22T12:03:52;12.80;;;3.75;;
48241;SDS011;34041;51.812;4.622;2022-10-22T12:10:47;11.15;;;3.28;;
48241;SDS011;34041;51.812;4.622;2022-10-22T12:13:59;8.80;;;2.83;;
48241;SDS011;34041;51.812;4.622;2022-10-22T12:20:06;12.63;;;3.95;;
48241;SDS011;34041;51.812;4.622;2022-10-22T12:23:10;14.32;;;3.42;;
48241;SDS011;34041;51.812;4.622;2022-10-22T12:26:24;8.88;;;2.50;;
48241;SDS011;34041;51.812;4.622;2022-10-22T12:29:24;13.32;;;3.35;;
48241;SDS011;34041;51.812;4.622;2022-10-22T12:32:33;10.18;;;3.08;;
48241;SDS011;34041;51.812;4.622;2022-10-22T12:35:40;8.02;;;2.53;;
48241;SDS011;34041;51.812;4.622;2022-10-22T12:38:43;11.05;;;2.75;;
48241;SDS011;34041;51.812;4.622;2022-10-22T12:41:46;11.85;;;2.50;;
48241;SDS011;34041;51.812;4.622;2022-10-22T12:44:46;10.48;;;3.10;;
48241;SDS011;34041;51.812;4.622;2022-10-22T12:47:47;12.33;;;2.57;;
48241;SDS011;34041;51.812;4.622;2022-10-22T12:50:48;14.30;;;2.60;;
48241;SDS011;34041;51.812;4.622;2022-10-22T12:53:53;10.52;;;3.00;;
48241;SDS011;34041;51.812;4.622;2022-10-22T12:56:54;13.40;;;3.17;;
48241;SDS011;34041;51.812;4.622;2022-10-22T12:59:55;9.10;;;3.10;;
48241;SDS011;34041;51.812;4.622;2022-10-22T13:02:55;10.20;;;2.75;;
48241;SDS011;34041;51.812;4.622;2022-10-22T13:05:56;9.32;;;3.13;;
48241;SDS011;34041;51.812;4.622;2022-10-22T13:09:24;12.57;;;2.97;;
48241;SDS011;34041;51.812;4.622;2022-10-22T13:12:25;11.50;;;2.77;;
48241;SDS011;34041;51.812;4.622;2022-10-22T13:18:34;14.80;;;2.92;;
48241;SDS011;34041;51.812;4.622;2022-10-22T13:21:38;16.83;;;3.23;;
48241;SDS011;34041;51.812;4.622;2022-10-22T13:24:47;10.25;;;2.08;;
48241;SDS011;34041;51.812;4.622;2022-10-22T13:27:48;9.77;;;2.40;;
48241;SDS011;34041;51.812;4.622;2022-10-22T13:30:53;5.10;;;2.22;;
48241;SDS011;34041;51.812;4.622;2022-10-22T13:33:55;10.75;;;2.47;;
48241;SDS011;34041;51.812;4.622;2022-10-22T13:36:55;7.63;;;2.35;;
48241;SDS011;34041;51.812;4.622;2022-10-22T13:39:55;7.47;;;2.80;;
48241;SDS011;34041;51.812;4.622;2022-10-22T13:42:55;8.57;;;2.65;;
48241;SDS011;34041;51.812;4.622;2022-10-22T13:45:57;6.85;;;2.65;;
48241;SDS011;34041;51.812;4.622;2022-10-22T13:48:58;11.82;;;2.47;;
48241;SDS011;34041;51.812;4.622;2022-10-22T13:51:59;9.77;;;2.38;;
48241;SDS011;34041;51.812;4.622;2022-10-22T13:55:00;6.15;;;1.98;;
48241;SDS011;34041;51.812;4.622;2022-10-22T13:58:09;9.13;;;2.65;;
48241;SDS011;34041;51.812;4.622;2022-10-22T14:01:20;9.70;;;2.10;;
48241;SDS011;34041;51.812;4.622;2022-10-22T14:04:20;15.05;;;3.28;;
48241;SDS011;34041;51.812;4.622;2022-10-22T14:07:21;8.60;;;2.37;;
48241;SDS011;34041;51.812;4.622;2022-10-22T14:10:22;15.13;;;2.97;;
48241;SDS011;34041;51.812;4.622;2022-10-22T14:13:22;9.00;;;2.70;;
48241;SDS011;34041;51.812;4.622;2022-10-22T14:16:23;11.27;;;2.03;;
48241;SDS011;34041;51.812;4.622;2022-10-22T14:19:24;11.80;;;2.30;;
48241;SDS011;34041;51.812;4.622;2022-10-22T14:22:24;7.77;;;1.90;;
48241;SDS011;34041;51.812;4.622;2022-10-22T14:25:26;8.70;;;2.53;;
48241;SDS011;34041;51.812;4.622;2022-10-22T14:28:26;8.05;;;2.10;;
48241;SDS011;34041;51.812;4.622;2022-10-22T14:31:27;13.40;;;2.70;;
48241;SDS011;34041;51.812;4.622;2022-10-22T14:34:27;8.52;;;2.35;;
48241;SDS011;34041;51.812;4.622;2022-10-22T14:37:27;8.60;;;2.43;;
48241;SDS011;34041;51.812;4.622;2022-10-22T14:40:27;7.97;;;2.03;;
48241;SDS011;34041;51.812;4.622;2022-10-22T14:43:29;7.65;;;2.20;;
48241;SDS011;34041;51.812;4.622;2022-10-22T14:46:30;7.13;;;2.30;;
48241;SDS011;34041;51.812;4.622;2022-10-22T14:49:30;12.83;;;2.40;;
48241;SDS011;34041;51.812;4.622;2022-10-22T14:52:30;11.65;;;2.22;;
48241;SDS011;34041;51.812;4.622;2022-10-22T14:55:30;6.87;;;2.53;;
48241;SDS011;34041;51.812;4.622;2022-10-22T14:58:31;11.45;;;3.72;;
48241;SDS011;34041;51.812;4.622;2022-10-22T15:01:31;13.67;;;3.20;;
48241;SDS011;34041;51.812;4.622;2022-10-22T15:04:31;7.53;;;2.70;;
48241;SDS011;34041;51.812;4.622;2022-10-22T15:07:31;13.53;;;2.33;;
48241;SDS011;34041;51.812;4.622;2022-10-22T15:10:31;10.03;;;2.70;;
48241;SDS011;34041;51.812;4.622;2022-10-22T15:13:32;8.57;;;2.37;;
48241;SDS011;34041;51.812;4.622;2022-10-22T15:16:32;11.13;;;2.13;;
48241;SDS011;34041;51.812;4.622;2022-10-22T15:19:33;9.47;;;2.37;;
48241;SDS011;34041;51.812;4.622;2022-10-22T15:22:33;11.47;;;3.07;;
48241;SDS011;34041;51.812;4.622;2022-10-22T15:25:34;11.18;;;3.15;;
48241;SDS011;34041;51.812;4.622;2022-10-22T15:28:34;9.77;;;2.63;;
48241;SDS011;34041;51.812;4.622;2022-10-22T15:32:08;11.07;;;2.38;;
48241;SDS011;34041;51.812;4.622;2022-10-22T15:35:02;7.53;;;2.13;;
48241;SDS011;34041;51.812;4.622;2022-10-22T15:38:02;11.88;;;2.42;;
48241;SDS011;34041;51.812;4.622;2022-10-22T15:41:05;7.18;;;2.00;;
48241;SDS011;34041;51.812;4.622;2022-10-22T15:44:06;6.43;;;2.65;;
48241;SDS011;34041;51.812;4.622;2022-10-22T15:47:07;12.45;;;3.22;;
48241;SDS011;34041;51.812;4.622;2022-10-22T15:50:08;6.65;;;2.28;;
48241;SDS011;34041;51.812;4.622;2022-10-22T15:53:08;6.28;;;2.33;;
48241;SDS011;34041;51.812;4.622;2022-10-22T15:56:09;12.43;;;2.63;;
48241;SDS011;34041;51.812;4.622;2022-10-22T15:59:11;10.15;;;3.13;;
48241;SDS011;34041;51.812;4.622;2022-10-22T16:02:12;10.18;;;2.75;;
48241;SDS011;34041;51.812;4.622;2022-10-22T16:05:12;8.63;;;2.83;;
48241;SDS011;34041;51.812;4.622;2022-10-22T16:08:12;9.73;;;2.88;;
48241;SDS011;34041;51.812;4.622;2022-10-22T16:11:13;6.13;;;2.40;;
48241;SDS011;34041;51.812;4.622;2022-10-22T16:14:13;11.77;;;2.93;;
48241;SDS011;34041;51.812;4.622;2022-10-22T16:17:14;7.85;;;2.90;;
48241;SDS011;34041;51.812;4.622;2022-10-22T16:20:14;10.47;;;2.80;;
48241;SDS011;34041;51.812;4.622;2022-10-22T16:23:14;7.07;;;2.73;;
48241;SDS011;34041;51.812;4.622;2022-10-22T16:26:17;9.57;;;2.28;;
48241;SDS011;34041;51.812;4.622;2022-10-22T16:29:18;6.70;;;2.80;;
48241;SDS011;34041;51.812;4.622;2022-10-22T16:32:18;11.23;;;3.05;;
48241;SDS011;34041;51.812;4.622;2022-10-22T16:35:18;9.37;;;3.00;;
48241;SDS011;34041;51.812;4.622;2022-10-22T16:38:18;8.07;;;2.30;;
48241;SDS011;34041;51.812;4.622;2022-10-22T16:41:20;9.47;;;2.33;;
48241;SDS011;34041;51.812;4.622;2022-10-22T16:44:20;6.63;;;3.22;;
48241;SDS011;34041;51.812;4.622;2022-10-22T16:47:20;7.70;;;2.75;;
48241;SDS011;34041;51.812;4.622;2022-10-22T16:50:20;13.97;;;3.37;;
48241;SDS011;34041;51.812;4.622;2022-10-22T16:53:21;9.07;;;2.53;;
48241;SDS011;34041;51.812;4.622;2022-10-22T16:56:21;6.43;;;3.10;;
48241;SDS011;34041;51.812;4.622;2022-10-22T16:59:21;8.85;;;2.92;;
48241;SDS011;34041;51.812;4.622;2022-10-22T17:02:22;8.80;;;3.27;;
48241;SDS011;34041;51.812;4.622;2022-10-22T17:05:22;10.63;;;4.47;;
48241;SDS011;34041;51.812;4.622;2022-10-22T17:08:22;10.67;;;3.27;;
48241;SDS011;34041;51.812;4.622;2022-10-22T17:11:22;8.83;;;3.23;;
48241;SDS011;34041;51.812;4.622;2022-10-22T17:14:23;8.90;;;3.20;;
48241;SDS011;34041;51.812;4.622;2022-10-22T17:17:23;10.23;;;2.63;;
48241;SDS011;34041;51.812;4.622;2022-10-22T17:20:23;5.50;;;2.57;;
48241;SDS011;34041;51.812;4.622;2022-10-22T17:23:24;11.00;;;3.50;;
48241;SDS011;34041;51.812;4.622;2022-10-22T17:26:25;7.93;;;2.75;;
48241;SDS011;34041;51.812;4.622;2022-10-22T17:29:27;9.40;;;3.30;;
48241;SDS011;34041;51.812;4.622;2022-10-22T17:32:28;11.00;;;3.43;;
48241;SDS011;34041;51.812;4.622;2022-10-22T17:35:28;8.25;;;2.40;;
48241;SDS011;34041;51.812;4.622;2022-10-22T17:38:28;7.10;;;2.63;;
48241;SDS011;34041;51.812;4.622;2022-10-22T17:41:30;7.63;;;2.67;;
48241;SDS011;34041;51.812;4.622;2022-10-22T17:44:30;7.95;;;3.05;;
48241;SDS011;34041;51.812;4.622;2022-10-22T17:47:31;7.90;;;3.22;;
48241;SDS011;34041;51.812;4.622;2022-10-22T17:50:31;9.87;;;4.07;;
48241;SDS011;34041;51.812;4.622;2022-10-22T17:53:31;9.27;;;2.93;;
48241;SDS011;34041;51.812;4.622;2022-10-22T17:56:31;11.70;;;3.78;;
48241;SDS011;34041;51.812;4.622;2022-10-22T17:59:32;8.93;;;2.80;;
48241;SDS011;34041;51.812;4.622;2022-10-22T18:02:32;10.55;;;4.45;;
48241;SDS011;34041;51.812;4.622;2022-10-22T18:05:32;7.20;;;3.53;;
48241;SDS011;34041;51.812;4.622;2022-10-22T18:08:33;11.65;;;4.05;;
48241;SDS011;34041;51.812;4.622;2022-10-22T18:11:33;15.33;;;4.20;;
48241;SDS011;34041;51.812;4.622;2022-10-22T18:14:35;10.80;;;3.95;;
48241;SDS011;34041;51.812;4.622;2022-10-22T18:17:36;9.10;;;4.27;;
48241;SDS011;34041;51.812;4.622;2022-10-22T18:20:37;10.20;;;3.33;;
48241;SDS011;34041;51.812;4.622;2022-10-22T18:23:37;9.90;;;3.47;;
48241;SDS011;34041;51.812;4.622;2022-10-22T18:26:37;18.47;;;3.60;;
48241;SDS011;34041;51.812;4.622;2022-10-22T18:29:37;7.97;;;2.80;;
48241;SDS011;34041;51.812;4.622;2022-10-22T18:32:37;13.67;;;3.13;;
48241;SDS011;34041;51.812;4.622;2022-10-22T18:35:38;10.10;;;3.70;;
48241;SDS011;34041;51.812;4.622;2022-10-22T18:38:40;10.43;;;3.83;;
48241;SDS011;34041;51.812;4.622;2022-10-22T18:41:40;10.07;;;3.37;;
48241;SDS011;34041;51.812;4.622;2022-10-22T18:44:41;6.88;;;3.72;;
48241;SDS011;34041;51.812;4.622;2022-10-22T18:47:41;8.07;;;4.10;;
48241;SDS011;34041;51.812;4.622;2022-10-22T18:50:41;10.45;;;4.22;;
48241;SDS011;34041;51.812;4.622;2022-10-22T18:53:42;7.13;;;3.83;;
48241;SDS011;34041;51.812;4.622;2022-10-22T18:56:42;11.88;;;3.78;;
48241;SDS011;34041;51.812;4.622;2022-10-22T18:59:42;7.88;;;3.17;;
48241;SDS011;34041;51.812;4.622;2022-10-22T19:02:43;7.53;;;3.92;;
48241;SDS011;34041;51.812;4.622;2022-10-22T19:05:44;7.70;;;3.47;;
48241;SDS011;34041;51.812;4.622;2022-10-22T19:08:46;8.15;;;3.33;;
48241;SDS011;34041;51.812;4.622;2022-10-22T19:11:46;10.70;;;4.18;;
48241;SDS011;34041;51.812;4.622;2022-10-22T19:14:46;11.93;;;3.63;;
48241;SDS011;34041;51.812;4.622;2022-10-22T19:17:47;9.20;;;3.45;;
48241;SDS011;34041;51.812;4.622;2022-10-22T19:20:56;8.07;;;3.57;;
48241;SDS011;34041;51.812;4.622;2022-10-22T19:23:57;10.40;;;3.78;;
48241;SDS011;34041;51.812;4.622;2022-10-22T19:26:58;8.70;;;4.05;;
48241;SDS011;34041;51.812;4.622;2022-10-22T19:29:58;8.48;;;3.63;;
48241;SDS011;34041;51.812;4.622;2022-10-22T19:32:58;9.20;;;4.17;;
48241;SDS011;34041;51.812;4.622;2022-10-22T19:36:02;13.77;;;3.70;;
48241;SDS011;34041;51.812;4.622;2022-10-22T19:39:02;17.98;;;4.60;;
48241;SDS011;34041;51.812;4.622;2022-10-22T19:42:03;20.55;;;4.32;;
48241;SDS011;34041;51.812;4.622;2022-10-22T19:45:03;12.13;;;3.90;;
48241;SDS011;34041;51.812;4.622;2022-10-22T19:48:04;14.77;;;4.90;;
48241;SDS011;34041;51.812;4.622;2022-10-22T19:51:09;11.55;;;4.38;;